createdAt,value
2023-04-27T00:02:15.224Z,2.97
2023-04-27T00:04:43.335Z,2.80
2023-04-27T00:07:10.817Z,3.97
2023-04-27T00:09:38.059Z,3.72
2023-04-27T00:12:06.336Z,4.43
2023-04-27T00:14:33.610Z,3.35
2023-04-27T00:17:01.025Z,3.00
2023-04-27T00:19:28.505Z,3.05
2023-04-27T00:21:57.871Z,2.80
2023-04-27T00:24:25.176Z,2.97
2023-04-27T00:26:52.476Z,3.67
2023-04-27T00:29:19.767Z,3.20
2023-04-27T00:31:47.048Z,3.97
2023-04-27T00:34:14.358Z,2.97
2023-04-27T00:36:41.590Z,3.38
2023-04-27T00:39:09.189Z,3.40
2023-04-27T00:41:39.643Z,3.08
2023-04-27T00:44:06.971Z,3.28
2023-04-27T00:46:35.205Z,2.95
2023-04-27T00:49:02.858Z,3.67
2023-04-27T00:51:31.655Z,3.05
2023-04-27T00:54:00.023Z,3.38
2023-04-27T00:56:27.386Z,3.20
2023-04-27T00:58:54.646Z,4.15
2023-04-27T01:01:21.900Z,3.25
2023-04-27T01:03:49.549Z,3.15
2023-04-27T01:06:16.899Z,3.28
2023-04-27T01:08:44.271Z,3.53
2023-04-27T01:11:11.584Z,4.43
2023-04-27T01:13:38.905Z,3.97
2023-04-27T01:16:06.500Z,3.38
2023-04-27T01:18:33.786Z,3.50
2023-04-27T01:21:01.333Z,3.88
2023-04-27T01:23:28.781Z,4.60
2023-04-27T01:25:56.037Z,4.22
2023-04-27T01:28:23.271Z,3.60
2023-04-27T01:30:50.653Z,3.67
2023-04-27T01:33:18.007Z,3.88
2023-04-27T01:35:45.405Z,3.40
2023-04-27T01:38:13.071Z,4.28
2023-04-27T01:40:40.392Z,3.47
2023-04-27T01:43:08.638Z,3.45
2023-04-27T01:45:35.938Z,3.65
2023-04-27T01:48:03.686Z,3.78
2023-04-27T01:50:30.982Z,3.88
2023-04-27T01:52:58.209Z,3.47
2023-04-27T01:55:25.542Z,3.22
2023-04-27T01:57:52.820Z,4.25
2023-04-27T02:00:20.245Z,3.17
2023-04-27T02:02:47.936Z,3.30
2023-04-27T02:05:15.754Z,3.30
2023-04-27T02:07:43.067Z,3.80
2023-04-27T02:10:10.965Z,3.97
2023-04-27T02:12:38.277Z,3.22
2023-04-27T02:15:06.636Z,3.78
2023-04-27T02:17:35.696Z,3.15
2023-04-27T02:20:03.074Z,3.28
2023-04-27T02:22:30.412Z,3.33
2023-04-27T02:24:57.667Z,3.70
2023-04-27T02:27:25.070Z,3.22
2023-04-27T02:29:52.864Z,3.55
2023-04-27T02:32:20.447Z,3.38
2023-04-27T02:34:48.545Z,3.70
2023-04-27T02:37:15.936Z,4.05
2023-04-27T02:39:43.257Z,3.60
2023-04-27T02:42:10.498Z,3.55
2023-04-27T02:44:37.787Z,3.88
2023-04-27T02:47:05.104Z,4.95
2023-04-27T02:49:32.380Z,4.28
2023-04-27T02:51:59.685Z,4.38
2023-04-27T02:54:27.037Z,4.60
2023-04-27T02:56:54.457Z,5.38
2023-04-27T02:59:22.001Z,4.18
2023-04-27T03:01:49.444Z,4.35
2023-04-27T03:04:17.542Z,4.07
2023-04-27T03:06:45.211Z,4.30
2023-04-27T03:09:15.723Z,3.95
2023-04-27T03:11:43.348Z,4.15
2023-04-27T03:14:10.761Z,4.80
2023-04-27T03:16:38.117Z,4.10
2023-04-27T03:19:05.458Z,4.75
2023-04-27T03:21:33.098Z,4.30
2023-04-27T03:24:00.396Z,5.07
2023-04-27T03:26:27.728Z,5.07
2023-04-27T03:28:54.962Z,5.07
2023-04-27T03:31:22.328Z,5.90
2023-04-27T03:33:49.665Z,5.28
2023-04-27T03:36:16.976Z,4.53
2023-04-27T03:38:44.659Z,4.88
2023-04-27T03:41:12.575Z,4.38
2023-04-27T03:43:39.884Z,5.10
2023-04-27T03:46:07.238Z,6.38
2023-04-27T03:48:34.537Z,4.90
2023-04-27T03:51:02.037Z,4.85
2023-04-27T03:53:29.337Z,5.72
2023-04-27T03:55:56.630Z,4.72
2023-04-27T03:58:23.948Z,4.60
2023-04-27T04:00:51.232Z,6.13
2023-04-27T04:03:18.705Z,5.88
2023-04-27T04:05:47.316Z,5.80
2023-04-27T04:08:14.777Z,6.35
2023-04-27T04:10:42.052Z,4.30
2023-04-27T04:13:09.291Z,5.15
2023-04-27T04:15:36.573Z,5.25
2023-04-27T04:18:03.981Z,4.45
2023-04-27T04:20:31.314Z,4.70
2023-04-27T04:22:58.918Z,5.65
2023-04-27T04:25:26.804Z,5.30
2023-04-27T04:27:54.069Z,4.28
2023-04-27T04:30:22.891Z,4.72
2023-04-27T04:32:50.355Z,5.22
2023-04-27T04:35:19.678Z,5.35
2023-04-27T04:37:47.058Z,5.18
2023-04-27T04:40:14.449Z,4.70
2023-04-27T04:42:41.778Z,4.40
2023-04-27T04:45:10.254Z,5.25
2023-04-27T04:47:37.528Z,4.20
2023-04-27T04:50:05.275Z,4.80
2023-04-27T04:52:32.560Z,5.53
2023-04-27T04:54:59.784Z,5.38
2023-04-27T04:57:27.068Z,5.90
2023-04-27T04:59:54.365Z,4.93
2023-04-27T05:02:22.213Z,5.22
2023-04-27T05:04:52.157Z,5.75
2023-04-27T05:07:24.136Z,5.93
2023-04-27T05:09:52.405Z,6.25
2023-04-27T05:12:19.700Z,5.05
2023-04-27T05:14:47.952Z,5.72
2023-04-27T05:17:15.320Z,5.70
2023-04-27T05:19:42.581Z,5.82
2023-04-27T05:22:09.901Z,6.05
2023-04-27T05:24:37.150Z,5.80
2023-04-27T05:27:04.516Z,5.53
2023-04-27T05:29:31.827Z,6.95
2023-04-27T05:31:59.502Z,7.25
2023-04-27T05:34:26.845Z,6.63
2023-04-27T05:36:54.109Z,6.10
2023-04-27T05:39:21.396Z,6.78
2023-04-27T05:41:49.046Z,5.38
2023-04-27T05:44:16.739Z,6.93
2023-04-27T05:46:44.041Z,7.53
2023-04-27T05:49:11.513Z,6.05
2023-04-27T05:51:39.026Z,5.47
2023-04-27T05:54:07.996Z,5.82
2023-04-27T05:56:35.455Z,6.00
2023-04-27T05:59:03.573Z,7.20
2023-04-27T06:01:30.938Z,5.68
2023-04-27T06:04:01.551Z,6.07
2023-04-27T06:06:32.975Z,5.88
2023-04-27T06:09:00.331Z,6.95
2023-04-27T06:11:27.948Z,6.85
2023-04-27T06:13:55.399Z,6.75
2023-04-27T06:16:23.273Z,8.18
2023-04-27T06:18:51.813Z,7.38
2023-04-27T06:21:19.133Z,7.38
2023-04-27T06:23:46.412Z,8.10
2023-04-27T06:26:13.651Z,7.03
2023-04-27T06:28:41.462Z,8.43
2023-04-27T06:31:08.724Z,7.10
2023-04-27T06:33:36.099Z,7.43
2023-04-27T06:36:03.502Z,8.23
2023-04-27T06:38:31.035Z,7.85
2023-04-27T06:40:59.267Z,6.57
2023-04-27T06:43:26.848Z,6.63
2023-04-27T06:45:54.311Z,6.55
2023-04-27T06:48:21.739Z,6.00
2023-04-27T06:50:49.198Z,5.90
2023-04-27T06:53:17.387Z,5.95
2023-04-27T06:55:46.848Z,6.18
2023-04-27T06:58:15.609Z,6.22
2023-04-27T07:00:42.890Z,5.85
2023-04-27T07:03:10.374Z,7.20
2023-04-27T07:05:37.970Z,8.00
2023-04-27T07:08:07.930Z,7.07
2023-04-27T07:10:36.160Z,5.68
2023-04-27T07:13:03.447Z,6.25
2023-04-27T07:15:31.763Z,5.28
2023-04-27T07:17:59.388Z,7.85
2023-04-27T07:20:26.892Z,5.80
2023-04-27T07:22:54.205Z,5.97
2023-04-27T07:25:21.613Z,7.15
2023-04-27T07:27:49.168Z,7.28
2023-04-27T07:30:17.900Z,5.95
2023-04-27T07:32:45.725Z,6.80
2023-04-27T07:35:13.544Z,5.45
2023-04-27T07:37:41.641Z,6.00
2023-04-27T07:40:16.935Z,5.32
2023-04-27T07:42:46.306Z,5.93
2023-04-27T07:45:14.133Z,5.18
2023-04-27T07:47:42.498Z,6.38
2023-04-27T07:50:10.506Z,6.20
2023-04-27T07:52:37.962Z,5.95
2023-04-27T07:55:05.797Z,5.72
2023-04-27T07:57:33.132Z,5.53
2023-04-27T08:00:00.520Z,5.38
2023-04-27T08:02:31.717Z,4.30
2023-04-27T08:04:59.519Z,4.97
2023-04-27T08:07:27.787Z,5.35
2023-04-27T08:09:55.486Z,4.68
2023-04-27T08:12:22.818Z,5.20
2023-04-27T08:14:50.157Z,4.70
2023-04-27T08:17:21.483Z,4.65
2023-04-27T08:19:48.884Z,5.13
2023-04-27T08:22:16.370Z,5.55
2023-04-27T08:24:43.678Z,5.82
2023-04-27T08:27:11.121Z,5.00
2023-04-27T08:29:38.415Z,5.63
2023-04-27T08:32:06.037Z,4.97
2023-04-27T08:34:33.522Z,5.50
2023-04-27T08:37:00.916Z,5.40
2023-04-27T08:39:28.763Z,6.18
2023-04-27T08:41:56.425Z,6.03
2023-04-27T08:44:24.026Z,5.38
2023-04-27T08:46:51.609Z,6.78
2023-04-27T08:49:19.219Z,6.00
2023-04-27T08:51:46.763Z,5.18
2023-04-27T08:54:14.102Z,5.55
2023-04-27T08:56:41.614Z,5.97
2023-04-27T08:59:16.707Z,4.95
2023-04-27T09:01:47.069Z,5.38
2023-04-27T09:04:14.935Z,6.72
2023-04-27T09:06:42.643Z,5.80
2023-04-27T09:09:11.431Z,5.90
2023-04-27T09:11:39.812Z,6.25
2023-04-27T09:14:17.728Z,5.90
2023-04-27T09:16:45.246Z,5.75
2023-04-27T09:19:13.106Z,5.97
2023-04-27T09:21:40.691Z,6.72
2023-04-27T09:24:12.935Z,7.75
2023-04-27T09:26:42.807Z,7.13
2023-04-27T09:29:10.345Z,7.90
2023-04-27T09:31:38.165Z,9.23
2023-04-27T09:34:05.539Z,8.77
2023-04-27T09:36:32.905Z,8.02
2023-04-27T09:39:06.834Z,8.57
2023-04-27T09:41:34.483Z,9.18
2023-04-27T09:44:02.657Z,7.90
2023-04-27T09:46:33.140Z,9.23
2023-04-27T09:49:04.343Z,9.55
2023-04-27T09:51:31.936Z,9.10
2023-04-27T09:54:03.035Z,10.27
2023-04-27T09:56:33.252Z,10.35
2023-04-27T09:59:27.991Z,9.55
2023-04-27T10:02:07.355Z,10.15
2023-04-27T10:05:05.235Z,11.70
2023-04-27T10:07:33.529Z,11.20
2023-04-27T10:10:05.195Z,11.52
2023-04-27T10:12:36.899Z,11.05
2023-04-27T10:15:17.814Z,10.43
2023-04-27T10:17:50.699Z,12.80
2023-04-27T10:20:28.453Z,11.43
2023-04-27T10:22:55.780Z,11.32
2023-04-27T10:25:28.675Z,11.65
2023-04-27T10:28:01.392Z,11.90
2023-04-27T10:30:45.321Z,13.40
2023-04-27T10:33:15.954Z,11.52
2023-04-27T10:35:53.474Z,12.07
2023-04-27T10:38:23.594Z,12.07
2023-04-27T10:41:03.430Z,12.23
2023-04-27T10:43:35.857Z,12.70
2023-04-27T10:46:14.022Z,14.82
2023-04-27T10:48:43.427Z,16.33
2023-04-27T10:51:15.566Z,14.25
2023-04-27T10:53:42.822Z,15.18
2023-04-27T10:56:11.178Z,14.02
2023-04-27T11:01:09.576Z,15.30
2023-04-27T11:03:37.557Z,12.57
2023-04-27T11:06:06.233Z,13.18
2023-04-27T11:08:36.781Z,12.88
2023-04-27T11:11:06.210Z,11.73
2023-04-27T11:13:33.717Z,13.05
2023-04-27T11:16:01.390Z,14.27
2023-04-27T11:18:33.077Z,13.48
2023-04-27T11:21:12.688Z,13.80
2023-04-27T11:23:40.708Z,13.25
2023-04-27T11:26:11.008Z,15.18
2023-04-27T11:28:38.889Z,14.18
2023-04-27T11:31:07.199Z,14.63
2023-04-27T11:33:35.929Z,14.63
2023-04-27T11:36:03.790Z,15.10
2023-04-27T11:38:34.540Z,14.70
2023-04-27T11:41:05.084Z,15.38
2023-04-27T11:43:33.433Z,15.88
2023-04-27T11:46:11.075Z,15.32
2023-04-27T11:48:39.467Z,16.55
2023-04-27T11:51:14.858Z,15.70
2023-04-27T11:53:42.897Z,17.00
2023-04-27T11:56:11.342Z,16.05
2023-04-27T11:58:39.718Z,16.35
2023-04-27T12:01:08.920Z,17.05
2023-04-27T12:03:36.701Z,18.10
2023-04-27T12:06:16.593Z,16.67
2023-04-27T12:08:51.492Z,17.40
2023-04-27T12:11:19.405Z,17.50
2023-04-27T12:13:47.160Z,18.40
2023-04-27T12:16:14.649Z,18.10
2023-04-27T12:18:42.088Z,17.13
2023-04-27T12:21:10.302Z,17.52
2023-04-27T12:23:37.630Z,17.98
2023-04-27T12:26:05.239Z,16.33
2023-04-27T12:28:32.480Z,18.15
2023-04-27T12:30:59.788Z,17.17
2023-04-27T12:33:27.223Z,17.90
2023-04-27T12:35:54.609Z,16.73
2023-04-27T12:38:22.564Z,16.33
2023-04-27T12:40:50.512Z,16.65
2023-04-27T12:43:17.839Z,16.60
2023-04-27T12:45:45.098Z,16.63
2023-04-27T12:48:12.502Z,17.75
2023-04-27T12:50:40.487Z,17.77
2023-04-27T12:53:07.742Z,18.08
2023-04-27T12:55:35.072Z,18.55
2023-04-27T12:58:04.756Z,16.73
2023-04-27T13:00:32.222Z,17.45
2023-04-27T13:02:59.738Z,15.60
2023-04-27T13:05:27.856Z,16.73
2023-04-27T13:07:56.667Z,17.08
2023-04-27T13:10:24.104Z,18.50
2023-04-27T13:12:51.444Z,16.40
2023-04-27T13:15:18.815Z,16.63
2023-04-27T13:17:46.180Z,15.73
2023-04-27T13:20:13.590Z,17.77
2023-04-27T13:22:41.738Z,17.63
2023-04-27T13:25:09.719Z,17.30
2023-04-27T13:27:37.483Z,17.08
2023-04-27T13:30:05.375Z,18.02
2023-04-27T13:32:32.880Z,19.02
2023-04-27T13:35:00.302Z,17.58
2023-04-27T13:37:27.583Z,18.63
2023-04-27T13:39:54.819Z,18.05
2023-04-27T13:42:24.806Z,19.27
2023-04-27T13:44:52.118Z,18.95
2023-04-27T13:47:19.930Z,18.85
2023-04-27T13:49:47.176Z,17.52
2023-04-27T13:52:14.553Z,18.02
2023-04-27T13:54:42.010Z,18.50
2023-04-27T13:57:09.243Z,18.58
2023-04-27T13:59:36.504Z,18.77
2023-04-27T14:02:04.319Z,18.58
2023-04-27T14:04:31.909Z,19.60
2023-04-27T14:06:59.301Z,18.55
2023-04-27T14:09:27.324Z,20.05
2023-04-27T14:11:57.205Z,18.55
2023-04-27T14:14:25.004Z,20.95
2023-04-27T14:16:53.475Z,20.13
2023-04-27T14:19:21.098Z,18.35
2023-04-27T14:21:52.543Z,18.83
2023-04-27T14:24:19.881Z,17.27
2023-04-27T14:26:48.899Z,18.60
2023-04-27T14:29:16.509Z,18.00
2023-04-27T14:31:44.880Z,18.05
2023-04-27T14:34:14.507Z,17.63
2023-04-27T14:36:41.790Z,18.38
2023-04-27T14:39:09.671Z,17.45
2023-04-27T14:41:37.533Z,19.70
2023-04-27T14:44:09.070Z,17.00
2023-04-27T14:46:36.671Z,16.92
2023-04-27T14:49:04.083Z,17.13
2023-04-27T14:51:32.588Z,16.40
2023-04-27T14:53:59.970Z,18.42
2023-04-27T14:56:27.280Z,16.25
2023-04-27T14:58:55.339Z,18.73
2023-04-27T15:01:22.768Z,16.73
2023-04-27T15:03:52.889Z,17.00
2023-04-27T15:06:21.944Z,16.17
2023-04-27T15:08:49.257Z,16.42
2023-04-27T15:11:16.611Z,16.13
2023-04-27T15:13:44.233Z,16.38
2023-04-27T15:16:11.592Z,16.33
2023-04-27T15:18:38.943Z,16.52
2023-04-27T15:21:06.379Z,14.73
2023-04-27T15:23:37.320Z,16.23
2023-04-27T15:26:04.960Z,14.52
2023-04-27T15:28:33.882Z,16.85
2023-04-27T15:31:01.222Z,14.85
2023-04-27T15:33:28.601Z,16.00
2023-04-27T15:35:56.268Z,15.43
2023-04-27T15:38:23.554Z,14.90
2023-04-27T15:40:50.851Z,14.32
2023-04-27T15:43:18.114Z,14.48
2023-04-27T15:45:45.944Z,14.57
2023-04-27T15:48:13.677Z,14.30
2023-04-27T15:50:41.046Z,13.40
2023-04-27T15:53:08.320Z,15.57
2023-04-27T15:55:35.553Z,13.90
2023-04-27T15:58:02.894Z,16.05
2023-04-27T16:00:30.739Z,14.68
2023-04-27T16:02:58.109Z,14.13
2023-04-27T16:05:25.857Z,14.50
2023-04-27T16:07:53.100Z,14.43
2023-04-27T16:10:20.401Z,13.55
2023-04-27T16:12:47.660Z,14.15
2023-04-27T16:15:15.034Z,12.80
2023-04-27T16:17:42.318Z,14.38
2023-04-27T16:20:09.779Z,14.07
2023-04-27T16:22:38.058Z,14.65
2023-04-27T16:25:10.878Z,14.07
2023-04-27T16:27:39.172Z,12.98
2023-04-27T16:30:07.536Z,14.15
2023-04-27T16:32:35.651Z,14.30
2023-04-27T16:35:03.549Z,13.00
2023-04-27T16:37:30.950Z,13.50
2023-04-27T16:40:05.745Z,14.68
2023-04-27T16:42:33.289Z,14.80
2023-04-27T16:45:02.240Z,13.40
2023-04-27T16:47:31.478Z,11.60
2023-04-27T16:49:59.106Z,12.40
2023-04-27T16:52:26.548Z,12.45
2023-04-27T16:54:53.876Z,13.00
2023-04-27T16:57:21.354Z,12.90
2023-04-27T16:59:48.649Z,13.05
2023-04-27T17:02:24.596Z,13.85
2023-04-27T17:04:53.708Z,11.85
2023-04-27T17:07:21.398Z,13.38
2023-04-27T17:09:48.793Z,13.20
2023-04-27T17:12:16.780Z,11.27
2023-04-27T17:14:44.124Z,12.68
2023-04-27T17:17:12.231Z,11.82
2023-04-27T17:19:39.667Z,11.05
2023-04-27T17:22:08.591Z,11.20
2023-04-27T17:24:35.929Z,11.27
2023-04-27T17:27:04.602Z,11.90
2023-04-27T17:29:32.036Z,10.00
2023-04-27T17:31:59.295Z,9.18
2023-04-27T17:34:26.631Z,9.38
2023-04-27T17:36:54.017Z,10.73
2023-04-27T17:39:22.712Z,10.00
2023-04-27T17:41:50.093Z,8.77
2023-04-27T17:44:17.461Z,8.85
2023-04-27T17:46:49.534Z,7.93
2023-04-27T17:49:18.308Z,8.68
2023-04-27T17:51:46.460Z,8.35
2023-04-27T17:54:13.818Z,8.02
2023-04-27T17:56:41.340Z,8.07
2023-04-27T17:59:09.032Z,8.70
2023-04-27T18:01:36.547Z,7.88
2023-04-27T18:04:06.509Z,8.98
2023-04-27T18:06:34.106Z,8.85
2023-04-27T18:09:01.605Z,9.77
2023-04-27T18:11:29.508Z,9.25
2023-04-27T18:13:58.270Z,9.30
2023-04-27T18:16:25.925Z,7.80
2023-04-27T18:18:53.245Z,9.70
2023-04-27T18:21:20.778Z,8.90
2023-04-27T18:23:48.054Z,8.73
2023-04-27T18:26:15.375Z,11.05
2023-04-27T18:28:42.608Z,9.38
2023-04-27T18:31:17.146Z,10.38
2023-04-27T18:36:12.614Z,9.68
2023-04-27T18:38:39.926Z,10.45
2023-04-27T18:41:07.750Z,9.15
2023-04-27T18:43:38.929Z,9.73
2023-04-27T18:46:06.389Z,13.60
2023-04-27T18:48:33.786Z,11.95
2023-04-27T18:51:01.147Z,10.15
2023-04-27T18:53:28.710Z,10.80
2023-04-27T18:55:56.063Z,10.02
2023-04-27T18:58:23.573Z,11.05
2023-04-27T19:00:51.017Z,8.52
2023-04-27T19:03:18.450Z,9.95
2023-04-27T19:05:46.087Z,9.80
2023-04-27T19:08:13.406Z,9.80
2023-04-27T19:10:43.462Z,9.82
2023-04-27T19:13:10.806Z,9.73
2023-04-27T19:15:38.747Z,9.63
2023-04-27T19:18:11.118Z,9.23
2023-04-27T19:20:39.871Z,9.95
2023-04-27T19:23:09.260Z,9.00
2023-04-27T19:25:36.820Z,8.48
2023-04-27T19:28:05.751Z,9.57
2023-04-27T19:30:33.168Z,9.43
2023-04-27T19:33:00.650Z,9.02
2023-04-27T19:35:28.058Z,9.43
2023-04-27T19:37:55.328Z,9.60
2023-04-27T19:40:22.774Z,9.18
2023-04-27T19:42:50.423Z,8.68
2023-04-27T19:45:18.205Z,37.50
2023-04-27T19:47:46.128Z,7.80
2023-04-27T19:50:13.647Z,8.85
2023-04-27T19:52:41.143Z,7.85
2023-04-27T19:55:08.865Z,9.50
2023-04-27T19:57:36.496Z,9.25
2023-04-27T20:00:12.065Z,8.07
2023-04-27T20:02:39.703Z,8.70
2023-04-27T20:05:08.041Z,7.55
2023-04-27T20:07:35.722Z,8.70
2023-04-27T20:10:04.413Z,7.57
2023-04-27T20:12:47.957Z,7.70
2023-04-27T20:15:20.291Z,7.53
2023-04-27T20:17:47.834Z,7.25
2023-04-27T20:20:15.352Z,8.75
2023-04-27T20:22:42.916Z,8.45
2023-04-27T20:25:10.709Z,8.52
2023-04-27T20:27:37.991Z,9.65
2023-04-27T20:30:05.859Z,8.80
2023-04-27T20:32:33.173Z,8.57
2023-04-27T20:35:02.561Z,8.73
2023-04-27T20:37:30.390Z,8.20
2023-04-27T20:39:57.890Z,9.85
2023-04-27T20:42:25.416Z,11.43
2023-04-27T20:44:54.850Z,10.48
2023-04-27T20:47:22.579Z,10.43
2023-04-27T20:49:49.993Z,10.23
2023-04-27T20:52:17.717Z,10.30
2023-04-27T20:54:45.260Z,11.15
2023-04-27T20:57:14.311Z,11.35
2023-04-27T20:59:41.907Z,12.93
2023-04-27T21:02:09.180Z,9.93
2023-04-27T21:04:36.683Z,17.30
2023-04-27T21:07:04.065Z,12.85
2023-04-27T21:09:31.632Z,11.57
2023-04-27T21:11:58.932Z,9.63
2023-04-27T21:14:26.207Z,10.13
2023-04-27T21:16:53.551Z,11.95
2023-04-27T21:19:20.853Z,10.07
2023-04-27T21:21:48.210Z,12.13
2023-04-27T21:24:15.677Z,10.30
2023-04-27T21:26:42.931Z,7.68
2023-04-27T21:29:10.189Z,12.32
2023-04-27T21:31:37.698Z,10.73
2023-04-27T21:34:05.359Z,9.05
2023-04-27T21:36:32.681Z,8.25
2023-04-27T21:39:00.009Z,9.55
2023-04-27T21:41:27.395Z,10.70
2023-04-27T21:43:54.708Z,7.75
2023-04-27T21:46:24.006Z,8.68
2023-04-27T21:48:51.500Z,10.90
2023-04-27T21:51:18.950Z,7.50
2023-04-27T21:53:46.315Z,8.25
2023-04-27T21:56:13.743Z,7.95
2023-04-27T21:58:41.095Z,9.10
2023-04-27T22:01:08.442Z,11.85
2023-04-27T22:03:35.937Z,7.45
2023-04-27T22:06:03.637Z,6.78
2023-04-27T22:08:31.041Z,6.78
2023-04-27T22:10:58.480Z,8.95
2023-04-27T22:13:25.888Z,7.07
2023-04-27T22:15:53.313Z,7.90
2023-04-27T22:18:20.715Z,8.55
2023-04-27T22:20:49.415Z,7.32
2023-04-27T22:23:16.755Z,8.05
2023-04-27T22:25:44.095Z,7.13
2023-04-27T22:28:11.698Z,7.80
2023-04-27T22:30:40.666Z,9.00
2023-04-27T22:33:08.208Z,7.00
2023-04-27T22:35:37.083Z,8.35
2023-04-27T22:38:04.697Z,6.47
2023-04-27T22:40:32.105Z,7.32
2023-04-27T22:42:59.358Z,6.80
2023-04-27T22:45:26.762Z,7.53
2023-04-27T22:47:54.590Z,6.18
2023-04-27T22:50:21.984Z,6.15
2023-04-27T22:52:50.070Z,5.55
2023-04-27T22:55:17.327Z,9.57
2023-04-27T22:57:44.724Z,6.07
2023-04-27T23:00:12.517Z,6.60
2023-04-27T23:02:41.077Z,6.72
2023-04-27T23:05:08.981Z,7.20
2023-04-27T23:07:36.357Z,8.13
2023-04-27T23:10:04.742Z,4.78
2023-04-27T23:12:32.188Z,4.97
2023-04-27T23:14:59.745Z,5.72
2023-04-27T23:17:33.490Z,5.85
2023-04-27T23:20:04.002Z,7.57
2023-04-27T23:22:31.549Z,7.85
2023-04-27T23:24:58.814Z,5.93
2023-04-27T23:27:26.111Z,5.93
2023-04-27T23:29:53.395Z,5.88
2023-04-27T23:32:20.997Z,5.25
2023-04-27T23:34:48.308Z,5.70
2023-04-27T23:37:15.599Z,5.65
2023-04-27T23:39:42.901Z,5.32
2023-04-27T23:42:10.267Z,5.57
2023-04-27T23:44:37.660Z,5.45
2023-04-27T23:47:05.132Z,6.07
2023-04-27T23:49:32.487Z,5.07
2023-04-27T23:51:59.800Z,6.25
2023-04-27T23:54:31.899Z,5.93
2023-04-27T23:56:59.239Z,5.18
2023-04-27T23:59:26.580Z,5.53
